Time;durP1;ratioP1;P1;durP2;ratioP2;P2;SDS_P1;SDS_P2;PMS_P1;PMS_P2;Temp;Humidity;BMP_temperature;BMP_pressure;BME280_temperature;BME280_humidity;BME280_pressure;Samples;Min_cycle;Max_cycle;Signal;HPM_P1;HPM_P2
2023/09/16 00:02:38;;;;;;;9.77;4.72;;;;;;;;;;10487098;28;20052;-82
2023/09/16 00:07:39;;;;;;;9.77;4.45;;;;;;;;;;10486994;28;20040;-82
2023/09/16 00:12:40;;;;;;;9.63;4.63;;;;;;;;;;10487355;28;20032;-82
2023/09/16 00:17:41;;;;;;;10.50;5.35;;;;;;;;;;10487277;28;20033;-81
2023/09/16 00:22:45;;;;;;;7.65;4.70;;;;;;;;;;10484826;28;20062;-81
2023/09/16 00:27:47;;;;;;;14.18;6.22;;;;;;;;;;10486943;28;20048;-82
2023/09/16 00:32:48;;;;;;;12.95;5.45;;;;;;;;;;10486965;28;20021;-82
2023/09/16 00:37:49;;;;;;;12.77;6.45;;;;;;;;;;10485184;28;20430;-82
2023/09/16 00:42:50;;;;;;;12.13;6.75;;;;;;;;;;10486818;28;20086;-82
2023/09/16 00:47:51;;;;;;;13.43;7.15;;;;;;;;;;10485582;28;20036;-82
2023/09/16 00:52:57;;;;;;;14.68;7.05;;;;;;;;;;10485238;28;20049;-81
2023/09/16 00:57:59;;;;;;;14.88;6.47;;;;;;;;;;10485598;28;20055;-83
2023/09/16 01:03:00;;;;;;;15.68;7.50;;;;;;;;;;10484869;28;20032;-82
2023/09/16 01:08:02;;;;;;;11.07;7.07;;;;;;;;;;10484893;28;20689;-82
2023/09/16 01:13:04;;;;;;;15.43;7.15;;;;;;;;;;10485857;28;20013;-81
2023/09/16 01:18:07;;;;;;;13.00;6.78;;;;;;;;;;10484754;28;20036;-83
2023/09/16 01:23:08;;;;;;;13.15;6.57;;;;;;;;;;10484983;28;20086;-83
2023/09/16 01:28:09;;;;;;;11.05;5.93;;;;;;;;;;10484983;28;20193;-83
2023/09/16 01:33:30;;;;;;;17.10;7.80;;;;;;;;;;10484550;28;20032;-82
2023/09/16 01:38:33;;;;;;;14.95;7.18;;;;;;;;;;10465802;28;20127;-82
2023/09/16 01:43:34;;;;;;;13.05;6.40;;;;;;;;;;10484192;28;20630;-82
2023/09/16 01:48:35;;;;;;;12.75;5.88;;;;;;;;;;10484044;28;20818;-82
2023/09/16 01:53:36;;;;;;;13.40;5.97;;;;;;;;;;10489593;28;20044;-81
2023/09/16 01:58:37;;;;;;;12.15;6.65;;;;;;;;;;10474829;28;20037;-83
2023/09/16 02:03:38;;;;;;;15.73;7.00;;;;;;;;;;10473758;28;20380;-83
2023/09/16 02:08:39;;;;;;;11.63;6.32;;;;;;;;;;10490380;28;20115;-81
2023/09/16 02:13:40;;;;;;;9.00;5.75;;;;;;;;;;10491546;28;20032;-81
2023/09/16 02:18:41;;;;;;;9.35;5.35;;;;;;;;;;10490703;28;20456;-82
2023/09/16 02:23:42;;;;;;;12.23;4.88;;;;;;;;;;10488740;28;20422;-82
2023/09/16 02:28:43;;;;;;;9.20;4.40;;;;;;;;;;10489946;28;20048;-82
2023/09/16 02:33:44;;;;;;;10.57;4.65;;;;;;;;;;10489963;28;20365;-82
2023/09/16 02:38:45;;;;;;;10.73;4.70;;;;;;;;;;10489989;28;20032;-81
2023/09/16 02:43:47;;;;;;;9.57;4.97;;;;;;;;;;10490319;28;20040;-82
2023/09/16 02:48:47;;;;;;;9.32;4.63;;;;;;;;;;10488931;28;20042;-82
2023/09/16 02:53:48;;;;;;;12.73;5.82;;;;;;;;;;10489367;28;20033;-81
2023/09/16 02:58:49;;;;;;;10.90;6.35;;;;;;;;;;10489851;28;20408;-81
2023/09/16 03:03:50;;;;;;;10.70;5.47;;;;;;;;;;10489648;28;20051;-82
2023/09/16 03:08:52;;;;;;;14.00;6.38;;;;;;;;;;10488955;28;20025;-83
2023/09/16 03:13:54;;;;;;;10.10;4.75;;;;;;;;;;10476151;28;20399;-82
2023/09/16 03:18:55;;;;;;;11.98;6.20;;;;;;;;;;10486485;28;20028;-82
2023/09/16 03:23:56;;;;;;;12.88;5.63;;;;;;;;;;10488193;28;20046;-81
2023/09/16 03:28:57;;;;;;;10.48;5.60;;;;;;;;;;10488478;28;20045;-82
2023/09/16 03:33:58;;;;;;;15.20;5.90;;;;;;;;;;10479158;28;20039;-82
2023/09/16 03:38:59;;;;;;;12.48;6.85;;;;;;;;;;10486662;28;20041;-83
2023/09/16 03:44:00;;;;;;;14.55;7.07;;;;;;;;;;10488544;28;20674;-81
2023/09/16 03:49:01;;;;;;;13.60;6.53;;;;;;;;;;10488226;28;20073;-81
2023/09/16 03:54:04;;;;;;;11.95;6.03;;;;;;;;;;10488184;28;20065;-81
2023/09/16 03:59:05;;;;;;;10.50;6.25;;;;;;;;;;10487493;28;20443;-79
2023/09/16 04:04:07;;;;;;;11.23;6.00;;;;;;;;;;10486946;28;20047;-83
2023/09/16 04:09:08;;;;;;;15.15;6.40;;;;;;;;;;10485711;28;20169;-82
2023/09/16 04:14:09;;;;;;;11.25;6.43;;;;;;;;;;10485759;28;20096;-83
2023/09/16 04:19:12;;;;;;;11.35;6.38;;;;;;;;;;10481661;28;20106;-81
2023/09/16 04:24:13;;;;;;;9.20;5.78;;;;;;;;;;10485038;28;20387;-83
2023/09/16 04:29:14;;;;;;;9.88;6.00;;;;;;;;;;10493441;28;20052;-81
2023/09/16 04:34:15;;;;;;;10.82;6.10;;;;;;;;;;10468905;28;20035;-84
2023/09/16 04:39:17;;;;;;;9.90;6.63;;;;;;;;;;10486877;28;20119;-83
2023/09/16 04:44:18;;;;;;;10.02;5.97;;;;;;;;;;10496668;28;20047;-84
2023/09/16 04:49:20;;;;;;;10.68;6.50;;;;;;;;;;10484457;28;20199;-85
2023/09/16 04:54:21;;;;;;;11.50;6.43;;;;;;;;;;10485012;28;20032;-84
2023/09/16 04:59:22;;;;;;;12.30;6.70;;;;;;;;;;10466083;28;20036;-82
2023/09/16 05:04:23;;;;;;;11.35;6.70;;;;;;;;;;10485689;28;20473;-89
2023/09/16 05:09:24;;;;;;;13.18;6.68;;;;;;;;;;10481950;28;20028;-83
2023/09/16 05:14:25;;;;;;;12.40;6.28;;;;;;;;;;10486140;28;20037;-83
2023/09/16 05:19:26;;;;;;;10.70;6.97;;;;;;;;;;10468181;28;20051;-83
2023/09/16 05:24:31;;;;;;;12.55;8.07;;;;;;;;;;10485622;28;20495;-80
2023/09/16 05:29:32;;;;;;;11.85;7.43;;;;;;;;;;10466806;28;20063;-86
2023/09/16 05:34:33;;;;;;;12.27;7.50;;;;;;;;;;10484247;28;20533;-84
2023/09/16 05:39:34;;;;;;;11.95;7.93;;;;;;;;;;10484851;28;20032;-83
2023/09/16 05:44:36;;;;;;;11.55;7.35;;;;;;;;;;10471950;28;20602;-83
2023/09/16 05:49:37;;;;;;;10.75;7.15;;;;;;;;;;10488209;28;20024;-85
2023/09/16 05:54:38;;;;;;;17.08;9.77;;;;;;;;;;10484919;28;20033;-84
2023/09/16 05:59:39;;;;;;;15.18;9.13;;;;;;;;;;10483194;28;20044;-84
2023/09/16 06:04:40;;;;;;;13.35;8.68;;;;;;;;;;10482261;28;20071;-84
2023/09/16 06:09:41;;;;;;;14.77;9.27;;;;;;;;;;10476464;28;20119;-85
2023/09/16 06:14:42;;;;;;;16.23;9.68;;;;;;;;;;10478906;28;20052;-84
2023/09/16 06:19:43;;;;;;;17.88;9.93;;;;;;;;;;10471530;28;20051;-86
2023/09/16 06:24:44;;;;;;;15.10;9.48;;;;;;;;;;10483582;28;20053;-83
2023/09/16 06:29:46;;;;;;;20.60;10.48;;;;;;;;;;10475544;28;20120;-83
2023/09/16 06:34:47;;;;;;;19.83;11.23;;;;;;;;;;10483079;28;20013;-80
2023/09/16 06:39:48;;;;;;;22.63;12.23;;;;;;;;;;10487784;28;20033;-81
2023/09/16 06:44:54;;;;;;;22.10;12.63;;;;;;;;;;10489509;28;20025;-86
2023/09/16 06:49:56;;;;;;;22.08;11.40;;;;;;;;;;10479854;28;20036;-83
2023/09/16 06:54:57;;;;;;;23.42;12.40;;;;;;;;;;10483026;28;20074;-83
2023/09/16 06:59:58;;;;;;;19.95;10.80;;;;;;;;;;10479465;28;20059;-82
2023/09/16 07:04:59;;;;;;;17.38;9.50;;;;;;;;;;10457658;28;20045;-83
2023/09/16 07:10:00;;;;;;;17.58;9.32;;;;;;;;;;10483820;28;20491;-83
2023/09/16 07:15:01;;;;;;;13.70;7.60;;;;;;;;;;10487032;28;20100;-79
2023/09/16 07:20:02;;;;;;;11.13;6.38;;;;;;;;;;10476483;28;20037;-85
2023/09/16 07:25:03;;;;;;;9.68;5.22;;;;;;;;;;10482648;28;20049;-86
2023/09/16 09:03:04;;;;;;;8.27;4.57;;;;;;;;;;10466351;28;20106;-85
2023/09/16 09:08:09;;;;;;;10.60;6.18;;;;;;;;;;10466756;28;20468;-85
2023/09/16 09:13:12;;;;;;;11.80;5.67;;;;;;;;;;10483697;28;21069;-84
2023/09/16 09:18:16;;;;;;;13.63;6.95;;;;;;;;;;10482077;28;20033;-85
2023/09/16 09:23:17;;;;;;;13.80;6.43;;;;;;;;;;10479830;28;20040;-87
2023/09/16 09:28:18;;;;;;;9.95;5.82;;;;;;;;;;10484835;28;20384;-85
2023/09/16 09:33:20;;;;;;;8.20;5.13;;;;;;;;;;10482397;28;20040;-83
2023/09/16 09:38:21;;;;;;;13.38;5.75;;;;;;;;;;10483844;28;20029;-82
2023/09/16 09:43:23;;;;;;;14.50;7.07;;;;;;;;;;10484224;28;20032;-83
2023/09/16 09:48:24;;;;;;;9.93;5.00;;;;;;;;;;10483330;28;20024;-84
2023/09/16 09:53:26;;;;;;;13.48;5.45;;;;;;;;;;10487581;28;20041;-83
2023/09/16 09:58:27;;;;;;;9.43;5.25;;;;;;;;;;10490053;28;20033;-83
2023/09/16 10:03:28;;;;;;;8.48;4.93;;;;;;;;;;10483242;28;20102;-82
2023/09/16 10:08:30;;;;;;;14.13;6.70;;;;;;;;;;10484785;28;20430;-82
2023/09/16 10:13:32;;;;;;;15.15;9.18;;;;;;;;;;10486007;28;20032;-80
2023/09/16 10:18:33;;;;;;;20.55;8.20;;;;;;;;;;10491126;28;20036;-81
2023/09/16 10:23:34;;;;;;;10.68;6.70;;;;;;;;;;10490377;28;20032;-81
2023/09/16 10:28:41;;;;;;;11.57;7.10;;;;;;;;;;10490359;28;20035;-82
2023/09/16 10:33:42;;;;;;;8.98;5.82;;;;;;;;;;10488664;28;20032;-87
2023/09/16 10:38:43;;;;;;;9.90;6.53;;;;;;;;;;10486261;28;20475;-83
2023/09/16 10:43:45;;;;;;;10.10;6.00;;;;;;;;;;10461415;28;20472;-83
2023/09/16 10:48:46;;;;;;;10.73;7.13;;;;;;;;;;10487685;28;20039;-84
2023/09/16 10:54:06;;;;;;;9.85;6.18;;;;;;;;;;10485663;28;20045;-83
2023/09/16 10:59:09;;;;;;;11.27;6.40;;;;;;;;;;10479999;28;20052;-87
2023/09/16 11:04:15;;;;;;;12.02;5.85;;;;;;;;;;10438324;28;20937;-85
2023/09/16 11:09:16;;;;;;;12.68;6.68;;;;;;;;;;10428957;28;20741;-85
2023/09/16 11:14:19;;;;;;;19.65;7.65;;;;;;;;;;10445705;28;20028;-79
2023/09/16 11:19:21;;;;;;;10.55;5.45;;;;;;;;;;10443541;28;20071;-84
2023/09/16 11:24:23;;;;;;;11.77;6.47;;;;;;;;;;10446428;28;20484;-84
2023/09/16 11:29:24;;;;;;;10.63;6.57;;;;;;;;;;10441081;28;20017;-82
2023/09/16 11:34:27;;;;;;;9.93;5.82;;;;;;;;;;10439129;28;20155;-82
2023/09/16 11:39:35;;;;;;;10.38;5.38;;;;;;;;;;10441617;28;20037;-82
2023/09/16 11:44:37;;;;;;;13.50;5.60;;;;;;;;;;10444078;28;20052;-83
2023/09/16 11:49:38;;;;;;;11.10;5.45;;;;;;;;;;10446561;28;20029;-84
2023/09/16 11:54:39;;;;;;;8.98;5.30;;;;;;;;;;10446404;28;20028;-78
2023/09/16 11:59:41;;;;;;;12.23;5.55;;;;;;;;;;10442999;28;20083;-85
2023/09/16 12:04:42;;;;;;;7.90;4.95;;;;;;;;;;10476670;28;20052;-80
2023/09/16 12:09:46;;;;;;;9.98;4.88;;;;;;;;;;10457790;28;20481;-82
2023/09/16 12:14:47;;;;;;;9.13;6.13;;;;;;;;;;10476186;28;20025;-80
2023/09/16 12:19:49;;;;;;;10.57;5.38;;;;;;;;;;10479765;28;20037;-78
2023/09/16 12:24:54;;;;;;;14.10;8.20;;;;;;;;;;10481333;28;20108;-80
2023/09/16 12:29:56;;;;;;;7.88;4.85;;;;;;;;;;10480621;28;20028;-81
2023/09/16 12:35:06;;;;;;;12.27;5.47;;;;;;;;;;10479409;28;20032;-84
2023/09/16 12:40:08;;;;;;;8.93;5.85;;;;;;;;;;10479479;28;20082;-79
2023/09/16 12:45:11;;;;;;;9.32;6.35;;;;;;;;;;10438997;28;20469;-78
2023/09/16 12:50:13;;;;;;;9.82;6.40;;;;;;;;;;10452288;28;20028;-83
2023/09/16 12:55:14;;;;;;;8.65;5.40;;;;;;;;;;10476808;28;20516;-82
2023/09/16 13:00:22;;;;;;;9.35;5.55;;;;;;;;;;10481406;28;20039;-82
2023/09/16 13:05:33;;;;;;;7.70;5.82;;;;;;;;;;10462896;28;20059;-82
2023/09/16 13:10:34;;;;;;;14.20;6.45;;;;;;;;;;10473919;28;20111;-82
2023/09/16 13:15:36;;;;;;;10.65;6.82;;;;;;;;;;10485605;28;20028;-82
2023/09/16 13:20:40;;;;;;;9.15;5.57;;;;;;;;;;10471464;28;20071;-87
2023/09/16 13:25:41;;;;;;;10.83;6.17;;;;;;;;;;10485606;28;20562;-85
2023/09/16 13:30:43;;;;;;;9.90;6.55;;;;;;;;;;10470653;28;20157;-86
2023/09/16 13:35:45;;;;;;;7.95;5.65;;;;;;;;;;10476648;28;20391;-87
2023/09/16 13:40:50;;;;;;;9.15;5.10;;;;;;;;;;10468544;28;20039;-84
2023/09/16 13:45:51;;;;;;;8.52;5.85;;;;;;;;;;10486002;28;20040;-84
2023/09/16 13:50:52;;;;;;;8.18;5.38;;;;;;;;;;10485482;28;20044;-82
2023/09/16 13:55:55;;;;;;;10.80;5.68;;;;;;;;;;10480454;28;20024;-82
2023/09/16 14:00:56;;;;;;;8.13;5.07;;;;;;;;;;10467077;28;20036;-83
2023/09/16 14:05:57;;;;;;;10.77;5.55;;;;;;;;;;10463134;28;20111;-81
2023/09/16 14:10:58;;;;;;;8.60;5.13;;;;;;;;;;10457506;28;20530;-81
2023/09/16 14:15:59;;;;;;;8.02;4.90;;;;;;;;;;10451751;28;20043;-81
2023/09/16 14:21:00;;;;;;;8.85;5.13;;;;;;;;;;10434755;28;20052;-81
2023/09/16 14:26:01;;;;;;;9.32;5.00;;;;;;;;;;10438587;28;20040;-81
2023/09/16 14:31:09;;;;;;;7.90;4.57;;;;;;;;;;10452917;28;20090;-82
2023/09/16 14:36:10;;;;;;;4.93;3.60;;;;;;;;;;10450772;28;20033;-81
2023/09/16 14:41:11;;;;;;;6.93;3.80;;;;;;;;;;10435991;28;20389;-82
2023/09/16 14:46:12;;;;;;;9.68;4.15;;;;;;;;;;10438688;28;20051;-83
2023/09/16 14:51:13;;;;;;;4.72;3.63;;;;;;;;;;10459697;28;20499;-82
2023/09/16 14:56:14;;;;;;;7.20;4.22;;;;;;;;;;10452722;28;20033;-82
2023/09/16 15:01:19;;;;;;;6.18;3.80;;;;;;;;;;10451252;28;20053;-82
2023/09/16 15:06:20;;;;;;;;;;;;;;;;;;10491708;28;20028;-81
2023/09/16 15:11:23;;;;;;;10.45;5.28;;;;;;;;;;10480986;28;19919;-81
2023/09/16 15:16:24;;;;;;;6.50;4.25;;;;;;;;;;10475384;28;20544;-80
2023/09/16 15:21:26;;;;;;;7.72;4.68;;;;;;;;;;10482938;28;20048;-81
2023/09/16 15:26:27;;;;;;;7.03;4.57;;;;;;;;;;10480912;28;20589;-85
2023/09/16 15:31:28;;;;;;;6.35;3.83;;;;;;;;;;10478737;28;20056;-81
2023/09/16 15:36:29;;;;;;;6.78;4.53;;;;;;;;;;10481815;28;20036;-81
2023/09/16 15:41:30;;;;;;;8.15;5.07;;;;;;;;;;10480347;28;20040;-81
2023/09/16 15:46:31;;;;;;;7.75;4.60;;;;;;;;;;10486849;28;20486;-81
2023/09/16 15:51:32;;;;;;;6.13;4.35;;;;;;;;;;10475579;28;20028;-85
2023/09/16 15:56:33;;;;;;;7.50;4.53;;;;;;;;;;10451838;28;20056;-81
2023/09/16 16:01:34;;;;;;;10.52;5.07;;;;;;;;;;10482694;28;20691;-81
2023/09/16 16:06:37;;;;;;;8.35;5.13;;;;;;;;;;10472453;28;20063;-81
2023/09/16 16:11:39;;;;;;;7.47;5.25;;;;;;;;;;10466135;28;20043;-81
2023/09/16 16:16:40;;;;;;;9.48;5.93;;;;;;;;;;10481695;28;20300;-81
2023/09/16 16:21:41;;;;;;;11.15;6.35;;;;;;;;;;10473882;28;20040;-84
2023/09/16 16:26:42;;;;;;;11.93;6.30;;;;;;;;;;10473266;28;20032;-83
2023/09/16 16:31:43;;;;;;;10.98;7.30;;;;;;;;;;10465457;28;20503;-84
2023/09/16 16:36:44;;;;;;;7.78;6.00;;;;;;;;;;10467711;28;20036;-80
2023/09/16 16:41:45;;;;;;;10.80;6.75;;;;;;;;;;10473266;28;20055;-82
2023/09/16 16:46:46;;;;;;;10.80;6.72;;;;;;;;;;10479849;28;20039;-84
2023/09/16 16:51:47;;;;;;;9.35;7.20;;;;;;;;;;10480327;28;20503;-81
2023/09/16 16:56:48;;;;;;;8.98;6.72;;;;;;;;;;10469650;28;20029;-80
2023/09/16 17:01:49;;;;;;;8.50;6.60;;;;;;;;;;10459611;28;20047;-81
2023/09/16 17:06:51;;;;;;;12.85;6.32;;;;;;;;;;10464712;28;20028;-80
2023/09/16 17:11:52;;;;;;;13.15;7.35;;;;;;;;;;10485571;28;20039;-80
2023/09/16 17:16:53;;;;;;;10.40;6.93;;;;;;;;;;10474050;28;20040;-80
2023/09/16 17:21:54;;;;;;;10.30;7.18;;;;;;;;;;10473230;28;20040;-80
2023/09/16 17:26:55;;;;;;;14.57;7.78;;;;;;;;;;10489099;28;20032;-81
2023/09/16 17:31:56;;;;;;;11.25;7.90;;;;;;;;;;10459871;28;20029;-79
2023/09/16 17:36:58;;;;;;;12.93;9.63;;;;;;;;;;10468143;28;20028;-82
2023/09/16 17:42:00;;;;;;;13.55;9.32;;;;;;;;;;10467285;28;20131;-81
2023/09/16 17:47:38;;;;;;;16.02;9.10;;;;;;;;;;10474443;28;20037;-81
2023/09/16 17:52:39;;;;;;;11.10;8.05;;;;;;;;;;10464776;28;20494;-85
2023/09/16 17:58:04;;;;;;;14.05;9.75;;;;;;;;;;10471887;28;20121;-82
2023/09/16 18:03:05;;;;;;;19.13;11.70;;;;;;;;;;10442038;28;20402;-86
2023/09/16 18:08:06;;;;;;;16.15;10.65;;;;;;;;;;10462021;28;20110;-81
2023/09/16 18:13:09;;;;;;;13.43;9.52;;;;;;;;;;10468942;28;20041;-81
2023/09/16 18:18:10;;;;;;;16.48;10.45;;;;;;;;;;10476559;28;20033;-82
2023/09/16 18:23:11;;;;;;;15.48;10.52;;;;;;;;;;10471943;28;20369;-84
2023/09/16 18:28:12;;;;;;;17.00;10.75;;;;;;;;;;10477695;28;20021;-82
2023/09/16 18:33:14;;;;;;;14.57;10.35;;;;;;;;;;10472296;28;20580;-88
2023/09/16 18:38:15;;;;;;;17.80;11.38;;;;;;;;;;10479915;28;20024;-82
2023/09/16 18:43:16;;;;;;;16.42;10.20;;;;;;;;;;10474815;28;20037;-82
2023/09/16 18:48:18;;;;;;;19.48;12.13;;;;;;;;;;10487457;28;20039;-82
2023/09/16 18:53:19;;;;;;;17.10;11.05;;;;;;;;;;10481848;28;20125;-84
2023/09/16 18:58:21;;;;;;;16.02;10.13;;;;;;;;;;10486254;28;20527;-85
2023/09/16 19:03:22;;;;;;;18.38;11.32;;;;;;;;;;10459642;28;20143;-81
2023/09/16 19:08:23;;;;;;;17.05;10.05;;;;;;;;;;10477932;28;20132;-79
2023/09/16 19:13:24;;;;;;;13.02;9.98;;;;;;;;;;10481273;28;20925;-81
2023/09/16 19:18:28;;;;;;;14.70;10.27;;;;;;;;;;10460090;28;20369;-82
2023/09/16 19:23:29;;;;;;;15.80;9.80;;;;;;;;;;10480959;28;20037;-84
2023/09/16 19:28:31;;;;;;;13.07;9.60;;;;;;;;;;10470211;28;20028;-82
2023/09/16 19:33:32;;;;;;;14.88;9.85;;;;;;;;;;10469730;28;20025;-81
2023/09/16 19:38:37;;;;;;;14.85;11.02;;;;;;;;;;10466606;28;20024;-82
2023/09/16 19:43:38;;;;;;;13.00;9.55;;;;;;;;;;10472575;28;20032;-83
2023/09/16 19:48:39;;;;;;;14.30;9.63;;;;;;;;;;10475395;28;20467;-84
2023/09/16 19:53:40;;;;;;;14.40;10.93;;;;;;;;;;10464732;28;20538;-82
2023/09/16 19:58:41;;;;;;;16.00;10.32;;;;;;;;;;10465669;28;20028;-82
2023/09/16 20:03:42;;;;;;;12.25;9.27;;;;;;;;;;10468383;28;20076;-85
2023/09/16 20:08:43;;;;;;;14.88;10.25;;;;;;;;;;10466487;28;20032;-82
2023/09/16 20:13:44;;;;;;;14.38;9.45;;;;;;;;;;10460108;28;20044;-81
2023/09/16 20:18:45;;;;;;;14.88;9.93;;;;;;;;;;10472397;28;20025;-80
2023/09/16 20:23:46;;;;;;;14.68;9.43;;;;;;;;;;10463540;28;20033;-82
2023/09/16 20:28:47;;;;;;;12.88;8.52;;;;;;;;;;10478730;28;20059;-81
2023/09/16 20:33:48;;;;;;;13.73;8.60;;;;;;;;;;10479886;28;20119;-82
2023/09/16 20:38:49;;;;;;;17.73;11.05;;;;;;;;;;10477404;28;20596;-82
2023/09/16 20:43:51;;;;;;;17.38;11.00;;;;;;;;;;10479537;28;20060;-84
2023/09/16 20:48:52;;;;;;;15.73;10.77;;;;;;;;;;10479797;28;20478;-84
2023/09/16 20:53:53;;;;;;;16.52;10.45;;;;;;;;;;10478262;28;20031;-83
2023/09/16 20:58:53;;;;;;;18.98;11.38;;;;;;;;;;10477832;28;20048;-83
2023/09/16 21:03:54;;;;;;;16.27;10.73;;;;;;;;;;10478825;28;20036;-82
2023/09/16 21:08:55;;;;;;;14.65;9.52;;;;;;;;;;10481323;28;20641;-85
2023/09/16 21:14:14;;;;;;;17.17;11.55;;;;;;;;;;10479730;28;20081;-82
2023/09/16 21:19:15;;;;;;;13.52;9.60;;;;;;;;;;10480426;28;20040;-80
2023/09/16 21:24:16;;;;;;;16.88;10.02;;;;;;;;;;10462790;28;20570;-82
2023/09/16 21:29:18;;;;;;;17.60;10.68;;;;;;;;;;10479709;28;20033;-82
2023/09/16 21:34:19;;;;;;;16.65;11.38;;;;;;;;;;10479723;28;20075;-81
2023/09/16 21:39:20;;;;;;;18.55;10.38;;;;;;;;;;10481134;28;20049;-81
2023/09/16 21:44:21;;;;;;;18.65;11.32;;;;;;;;;;10482256;28;20032;-84
2023/09/16 21:49:22;;;;;;;17.80;11.48;;;;;;;;;;10481204;28;20103;-84
2023/09/16 21:54:23;;;;;;;14.30;9.77;;;;;;;;;;10482167;28;20077;-85
2023/09/16 21:59:24;;;;;;;13.57;9.20;;;;;;;;;;10481445;28;20087;-82
2023/09/16 22:04:25;;;;;;;15.40;9.93;;;;;;;;;;10480101;28;20087;-82
2023/09/16 22:09:26;;;;;;;15.10;9.23;;;;;;;;;;10484715;28;20036;-82
2023/09/16 22:14:27;;;;;;;14.38;9.07;;;;;;;;;;10489029;28;20413;-85
2023/09/16 22:19:28;;;;;;;19.50;10.15;;;;;;;;;;10488851;28;20447;-84
2023/09/16 22:24:29;;;;;;;14.77;10.15;;;;;;;;;;10488796;28;20036;-81
2023/09/16 22:29:30;;;;;;;15.85;10.52;;;;;;;;;;10484600;28;20024;-82
2023/09/16 22:34:34;;;;;;;16.45;9.82;;;;;;;;;;10487576;28;20039;-82
2023/09/16 22:39:35;;;;;;;13.43;8.85;;;;;;;;;;10487573;28;20115;-81
2023/09/16 22:44:36;;;;;;;16.75;9.27;;;;;;;;;;10486575;28;20124;-82
2023/09/16 22:49:51;;;;;;;12.48;9.55;;;;;;;;;;10487336;28;20023;-83
2023/09/16 22:54:53;;;;;;;10.73;7.60;;;;;;;;;;10486512;28;20068;-82
2023/09/16 22:59:54;;;;;;;15.25;9.95;;;;;;;;;;10486945;28;20034;-82
2023/09/16 23:04:55;;;;;;;13.30;8.48;;;;;;;;;;10486508;28;20514;-85
2023/09/16 23:09:56;;;;;;;16.40;10.68;;;;;;;;;;10485359;28;20052;-81
2023/09/16 23:14:57;;;;;;;16.85;10.63;;;;;;;;;;10487001;28;20036;-82
2023/09/16 23:19:58;;;;;;;17.20;9.73;;;;;;;;;;10484890;28;20041;-83
2023/09/16 23:24:59;;;;;;;23.23;14.38;;;;;;;;;;10482423;28;20040;-84
2023/09/16 23:30:00;;;;;;;20.67;11.98;;;;;;;;;;10485741;28;20041;-82
2023/09/16 23:35:03;;;;;;;17.48;10.85;;;;;;;;;;10486446;28;20044;-82
2023/09/16 23:40:06;;;;;;;18.08;11.50;;;;;;;;;;10483070;28;20143;-82
2023/09/16 23:45:07;;;;;;;17.75;11.00;;;;;;;;;;10481552;28;20044;-82
2023/09/16 23:50:09;;;;;;;16.63;11.65;;;;;;;;;;10483172;28;20028;-84
2023/09/16 23:55:10;;;;;;;19.83;11.45;;;;;;;;;;10484883;28;20042;-83
